Time;durP1;ratioP1;P1;durP2;ratioP2;P2;SDS_P1;SDS_P2;PMS_P1;PMS_P2;Temp;Humidity;BMP_temperature;BMP_pressure;BME280_temperature;BME280_humidity;BME280_pressure;Samples;Min_cycle;Max_cycle;Signal;HPM_P1;HPM_P2
2022/10/18 00:01:55;;;;;;;11.45;7.60;;;;;;;;;;1742542;82;21063;-62
2022/10/18 00:04:21;;;;;;;14.73;7.65;;;;;;;;;;1751259;82;21519;-62
2022/10/18 00:06:47;;;;;;;12.18;7.42;;;;;;;;;;1748437;82;21106;-62
2022/10/18 00:09:14;;;;;;;11.70;6.83;;;;;;;;;;1750966;82;20984;-62
2022/10/18 00:11:40;;;;;;;12.23;7.90;;;;;;;;;;1738036;82;21069;-61
2022/10/18 00:14:06;;;;;;;11.97;7.20;;;;;;;;;;1737926;82;20994;-61
2022/10/18 00:16:33;;;;;;;13.72;7.22;;;;;;;;;;1719150;82;21056;-61
2022/10/18 00:19:01;;;;;;;11.20;7.00;;;;;;;;;;1743166;82;21618;-62
2022/10/18 00:21:27;;;;;;;14.43;7.70;;;;;;;;;;1752582;82;21044;-61
2022/10/18 00:23:53;;;;;;;13.35;7.05;;;;;;;;;;1752678;81;21107;-62
2022/10/18 00:26:23;;;;;;;12.37;7.17;;;;;;;;;;1733445;82;21090;-62
2022/10/18 00:28:51;;;;;;;12.63;6.85;;;;;;;;;;1748014;82;20969;-62
2022/10/18 00:31:27;;;;;;;12.75;7.25;;;;;;;;;;1743686;81;21064;-62
2022/10/18 00:33:56;;;;;;;12.60;6.87;;;;;;;;;;1744936;82;20988;-61
2022/10/18 00:36:23;;;;;;;12.03;7.20;;;;;;;;;;1726207;82;21083;-62
2022/10/18 00:38:49;;;;;;;15.20;7.45;;;;;;;;;;1751425;82;21036;-62
2022/10/18 00:41:16;;;;;;;10.90;6.55;;;;;;;;;;1743793;82;21060;-62
2022/10/18 00:43:53;;;;;;;12.65;6.97;;;;;;;;;;1741770;82;20993;-62
2022/10/18 00:46:20;;;;;;;13.03;7.05;;;;;;;;;;1729174;82;21074;-63
2022/10/18 00:48:46;;;;;;;11.63;6.20;;;;;;;;;;1741605;82;21028;-63
2022/10/18 00:51:12;;;;;;;11.80;6.72;;;;;;;;;;1749249;82;21032;-63
2022/10/18 00:53:39;;;;;;;11.60;6.70;;;;;;;;;;1752717;82;21032;-63
2022/10/18 00:56:05;;;;;;;11.97;6.30;;;;;;;;;;1747212;81;21459;-63
2022/10/18 00:58:31;;;;;;;11.12;6.65;;;;;;;;;;1740836;82;21067;-63
2022/10/18 01:00:58;;;;;;;11.08;7.20;;;;;;;;;;1725423;81;21131;-63
2022/10/18 01:03:25;;;;;;;12.80;6.58;;;;;;;;;;1735753;82;21008;-64
2022/10/18 01:05:51;;;;;;;10.00;6.65;;;;;;;;;;1730194;82;21068;-64
2022/10/18 01:08:25;;;;;;;10.65;6.17;;;;;;;;;;1717730;83;21084;-62
2022/10/18 01:10:53;;;;;;;12.13;7.00;;;;;;;;;;1716479;83;20996;-64
2022/10/18 01:13:39;;;;;;;13.20;6.10;;;;;;;;;;1723268;82;21035;-62
2022/10/18 01:16:24;;;;;;;13.18;6.35;;;;;;;;;;1720742;82;21031;-65
2022/10/18 01:18:55;;;;;;;10.75;6.90;;;;;;;;;;1751934;82;20988;-64
2022/10/18 01:21:26;;;;;;;11.73;6.28;;;;;;;;;;1694459;84;21056;-64
2022/10/18 01:23:54;;;;;;;10.13;6.17;;;;;;;;;;1714392;82;21053;-64
2022/10/18 01:26:25;;;;;;;10.95;6.40;;;;;;;;;;1709746;82;21041;-62
2022/10/18 01:28:54;;;;;;;12.68;6.70;;;;;;;;;;1736665;82;21032;-62
2022/10/18 01:31:20;;;;;;;10.25;6.45;;;;;;;;;;1750212;82;21570;-62
2022/10/18 01:33:49;;;;;;;11.90;6.67;;;;;;;;;;1752710;82;21016;-62
2022/10/18 01:38:04;;;;;;;13.08;7.22;;;;;;;;;;1811282;79;22620;-63
2022/10/18 01:40:30;;;;;;;10.15;6.40;;;;;;;;;;1775267;80;21009;-63
2022/10/18 01:42:57;;;;;;;11.08;6.80;;;;;;;;;;1782343;80;21579;-63
2022/10/18 01:45:24;;;;;;;10.90;6.67;;;;;;;;;;1771487;80;21563;-63
2022/10/18 01:47:50;;;;;;;11.03;6.95;;;;;;;;;;1770162;80;21032;-63
2022/10/18 01:50:18;;;;;;;12.65;6.92;;;;;;;;;;1773136;80;21056;-63
2022/10/18 01:52:49;;;;;;;11.48;6.92;;;;;;;;;;1781818;80;21044;-63
2022/10/18 01:55:15;;;;;;;12.05;6.65;;;;;;;;;;1767373;80;21056;-62
2022/10/18 01:57:44;;;;;;;14.75;6.85;;;;;;;;;;1759022;80;21044;-62
2022/10/18 02:00:21;;;;;;;12.75;7.50;;;;;;;;;;1760470;80;21096;-62
2022/10/18 02:05:41;;;;;;;10.05;6.47;;;;;;;;;;1685293;83;21114;-62
2022/10/18 02:08:13;;;;;;;12.07;6.45;;;;;;;;;;1689939;85;21137;-61
2022/10/18 02:10:46;;;;;;;16.85;7.37;;;;;;;;;;1690290;85;21137;-61
2022/10/18 02:13:13;;;;;;;12.10;6.75;;;;;;;;;;1685565;84;21062;-61
2022/10/18 02:15:41;;;;;;;12.50;7.35;;;;;;;;;;1700486;83;21110;-62
2022/10/18 02:18:09;;;;;;;11.00;6.85;;;;;;;;;;1706968;84;21062;-61
2022/10/18 02:20:36;;;;;;;12.58;8.20;;;;;;;;;;1698446;84;21042;-62
2022/10/18 02:23:03;;;;;;;15.63;8.30;;;;;;;;;;1682901;85;21137;-62
2022/10/18 02:25:29;;;;;;;12.03;7.53;;;;;;;;;;1683402;83;21066;-61
2022/10/18 02:27:56;;;;;;;10.38;6.95;;;;;;;;;;1684836;85;21073;-61
2022/10/18 02:30:23;;;;;;;11.90;6.42;;;;;;;;;;1687504;84;21101;-61
2022/10/18 02:33:07;;;;;;;11.93;7.00;;;;;;;;;;1706970;84;21078;-62
2022/10/18 02:35:38;;;;;;;12.28;7.28;;;;;;;;;;1681256;83;21066;-61
2022/10/18 02:38:04;;;;;;;12.05;7.12;;;;;;;;;;1696377;84;21536;-61
2022/10/18 02:40:31;;;;;;;10.05;6.30;;;;;;;;;;1692723;84;21050;-62
2022/10/18 02:42:57;;;;;;;15.58;6.87;;;;;;;;;;1697574;84;21121;-62
2022/10/18 02:45:24;;;;;;;11.80;6.58;;;;;;;;;;1695959;84;21023;-62
2022/10/18 02:47:51;;;;;;;12.82;7.05;;;;;;;;;;1694407;83;21046;-62
2022/10/18 02:50:17;;;;;;;12.15;7.10;;;;;;;;;;1683892;85;21074;-62
2022/10/18 02:52:44;;;;;;;14.15;6.92;;;;;;;;;;1682047;85;21114;-61
2022/10/18 02:55:10;;;;;;;12.78;8.05;;;;;;;;;;1695635;84;21039;-62
2022/10/18 02:57:37;;;;;;;15.13;7.40;;;;;;;;;;1706459;84;21513;-62
2022/10/18 03:00:03;;;;;;;11.33;6.87;;;;;;;;;;1706010;83;21070;-61
2022/10/18 03:02:31;;;;;;;12.25;6.97;;;;;;;;;;1703645;84;21054;-62
2022/10/18 03:04:58;;;;;;;11.63;6.92;;;;;;;;;;1672064;84;21617;-62
2022/10/18 03:07:25;;;;;;;11.05;6.60;;;;;;;;;;1661613;85;21057;-62
2022/10/18 03:09:52;;;;;;;11.43;6.97;;;;;;;;;;1662781;86;21081;-62
2022/10/18 03:12:18;;;;;;;16.87;7.30;;;;;;;;;;1661244;85;21094;-62
2022/10/18 03:14:44;;;;;;;11.63;6.45;;;;;;;;;;1654369;87;21602;-62
2022/10/18 03:17:11;;;;;;;12.13;6.72;;;;;;;;;;1653414;85;21039;-62
2022/10/18 03:19:37;;;;;;;15.43;6.87;;;;;;;;;;1652833;87;21067;-62
2022/10/18 03:22:04;;;;;;;13.58;6.92;;;;;;;;;;1653159;87;21086;-61
2022/10/18 03:24:30;;;;;;;13.78;6.95;;;;;;;;;;1653449;85;21118;-62
2022/10/18 03:26:58;;;;;;;11.68;6.53;;;;;;;;;;1617039;87;21066;-61
2022/10/18 03:29:25;;;;;;;12.30;7.03;;;;;;;;;;1602791;89;21091;-62
2022/10/18 03:31:51;;;;;;;9.15;5.60;;;;;;;;;;1612051;89;21561;-61
2022/10/18 03:34:17;;;;;;;14.87;7.20;;;;;;;;;;1612035;89;21077;-62
2022/10/18 03:36:44;;;;;;;12.93;6.62;;;;;;;;;;1605066;89;21124;-61
2022/10/18 03:39:11;;;;;;;17.65;8.75;;;;;;;;;;1601255;90;21571;-62
2022/10/18 03:41:38;;;;;;;13.32;6.92;;;;;;;;;;1598918;88;21061;-62
2022/10/18 03:44:04;;;;;;;11.88;6.97;;;;;;;;;;1623183;88;21095;-61
2022/10/18 03:46:30;;;;;;;10.20;6.45;;;;;;;;;;1627751;88;21061;-62
2022/10/18 03:48:57;;;;;;;15.30;7.17;;;;;;;;;;1632189;87;21069;-62
2022/10/18 03:51:23;;;;;;;11.90;6.87;;;;;;;;;;1629322;88;21041;-61
2022/10/18 03:53:51;;;;;;;10.05;6.80;;;;;;;;;;1632278;87;21548;-62
2022/10/18 03:56:17;;;;;;;12.30;7.05;;;;;;;;;;1630839;86;21085;-62
2022/10/18 03:58:44;;;;;;;23.77;7.45;;;;;;;;;;1626119;88;21092;-62
2022/10/18 04:01:10;;;;;;;14.10;7.55;;;;;;;;;;1613293;88;21110;-61
2022/10/18 04:03:36;;;;;;;11.20;7.12;;;;;;;;;;1612454;87;21141;-62
2022/10/18 04:06:06;;;;;;;27.77;8.40;;;;;;;;;;1607114;88;21081;-62
2022/10/18 04:08:32;;;;;;;16.40;7.62;;;;;;;;;;1606491;89;21281;-61
2022/10/18 04:10:59;;;;;;;11.35;6.90;;;;;;;;;;1627615;88;21041;-62
2022/10/18 04:13:25;;;;;;;15.53;8.05;;;;;;;;;;1581693;89;21068;-62
2022/10/18 04:15:52;;;;;;;12.37;7.60;;;;;;;;;;1606374;89;21543;-62
2022/10/18 04:18:18;;;;;;;14.85;8.18;;;;;;;;;;1606581;89;21073;-62
2022/10/18 04:20:45;;;;;;;14.78;7.67;;;;;;;;;;1637575;88;21102;-62
2022/10/18 04:23:12;;;;;;;17.77;8.53;;;;;;;;;;1637583;86;21561;-62
2022/10/18 04:25:39;;;;;;;14.95;8.20;;;;;;;;;;1637531;88;21050;-62
2022/10/18 04:28:05;;;;;;;25.08;8.48;;;;;;;;;;1637701;88;21082;-62
2022/10/18 04:30:31;;;;;;;20.30;8.53;;;;;;;;;;1637732;87;21137;-62
2022/10/18 04:32:59;;;;;;;18.12;9.73;;;;;;;;;;1637744;88;21514;-62
2022/10/18 04:35:27;;;;;;;16.35;8.65;;;;;;;;;;1637681;88;21015;-62
2022/10/18 04:37:53;;;;;;;14.30;7.72;;;;;;;;;;1637108;86;21099;-61
2022/10/18 04:40:20;;;;;;;14.10;8.00;;;;;;;;;;1633652;88;21098;-62
2022/10/18 04:42:46;;;;;;;12.80;7.17;;;;;;;;;;1637788;87;21823;-62
2022/10/18 04:45:12;;;;;;;13.03;7.05;;;;;;;;;;1637330;88;21084;-62
2022/10/18 04:47:39;;;;;;;15.43;7.20;;;;;;;;;;1637558;86;21087;-62
2022/10/18 04:50:06;;;;;;;17.98;7.10;;;;;;;;;;1637562;87;21092;-61
2022/10/18 04:52:32;;;;;;;14.93;7.20;;;;;;;;;;1637423;86;21490;-61
2022/10/18 04:54:58;;;;;;;13.72;6.20;;;;;;;;;;1634938;86;21120;-61
2022/10/18 04:57:24;;;;;;;12.53;6.50;;;;;;;;;;1610312;89;21129;-61
2022/10/18 04:59:50;;;;;;;14.28;7.85;;;;;;;;;;1632275;87;21655;-62
2022/10/18 05:02:16;;;;;;;13.88;7.35;;;;;;;;;;1637592;88;21044;-62
2022/10/18 05:04:43;;;;;;;16.10;7.35;;;;;;;;;;1643354;85;21132;-61
2022/10/18 05:07:10;;;;;;;17.62;6.87;;;;;;;;;;1673791;84;21601;-61
2022/10/18 05:09:37;;;;;;;11.88;6.87;;;;;;;;;;1680979;85;21094;-64
2022/10/18 05:12:05;;;;;;;16.80;6.60;;;;;;;;;;1637920;86;21069;-63
2022/10/18 05:14:31;;;;;;;12.18;6.30;;;;;;;;;;1681478;85;21082;-62
2022/10/18 05:16:57;;;;;;;13.22;6.60;;;;;;;;;;1668840;84;21079;-62
2022/10/18 05:19:23;;;;;;;13.20;6.35;;;;;;;;;;1647348;86;22066;-61
2022/10/18 05:21:55;;;;;;;15.80;7.08;;;;;;;;;;1673381;85;21190;-61
2022/10/18 05:24:19;;;;;;;13.22;6.42;;;;;;;;;;1674211;85;21065;-61
2022/10/18 05:26:45;;;;;;;12.25;5.45;;;;;;;;;;1669306;84;21072;-62
2022/10/18 05:29:12;;;;;;;10.80;6.10;;;;;;;;;;1668224;84;22127;-62
2022/10/18 05:31:38;;;;;;;13.32;6.03;;;;;;;;;;1672613;84;21080;-62
2022/10/18 05:34:05;;;;;;;8.45;5.80;;;;;;;;;;1689449;85;21073;-63
2022/10/18 05:36:31;;;;;;;12.37;6.80;;;;;;;;;;1678411;85;21081;-62
2022/10/18 05:38:58;;;;;;;11.18;6.45;;;;;;;;;;1678903;84;21054;-63
2022/10/18 05:41:24;;;;;;;19.07;7.20;;;;;;;;;;1682040;84;21105;-63
2022/10/18 05:43:50;;;;;;;18.98;6.45;;;;;;;;;;1670676;84;21040;-63
2022/10/18 05:46:17;;;;;;;13.85;6.33;;;;;;;;;;1669214;84;21069;-62
2022/10/18 05:48:43;;;;;;;15.13;6.25;;;;;;;;;;1677968;84;21017;-62
2022/10/18 05:51:10;;;;;;;10.53;5.95;;;;;;;;;;1683100;85;21056;-62
2022/10/18 05:53:37;;;;;;;11.43;7.42;;;;;;;;;;1673702;84;21058;-62
2022/10/18 05:56:04;;;;;;;13.22;7.33;;;;;;;;;;1671136;84;21085;-62
2022/10/18 05:58:30;;;;;;;13.70;7.33;;;;;;;;;;1676268;84;21533;-61
2022/10/18 06:00:58;;;;;;;12.25;6.80;;;;;;;;;;1675984;85;21068;-62
2022/10/18 06:06:06;;;;;;;13.50;6.90;;;;;;;;;;1741016;77;21231;-62
2022/10/18 06:08:33;;;;;;;12.00;7.37;;;;;;;;;;1791077;78;21007;-62
2022/10/18 06:11:11;;;;;;;11.80;5.85;;;;;;;;;;1796659;78;21027;-62
2022/10/18 06:13:39;;;;;;;11.00;6.25;;;;;;;;;;1798868;78;21062;-62
2022/10/18 06:16:06;;;;;;;12.75;6.70;;;;;;;;;;1791706;80;21020;-62
2022/10/18 06:18:32;;;;;;;14.13;8.53;;;;;;;;;;1792635;80;21487;-62
2022/10/18 06:20:58;;;;;;;11.20;6.75;;;;;;;;;;1797979;78;21501;-62
2022/10/18 06:23:25;;;;;;;12.13;6.45;;;;;;;;;;1772855;80;21058;-61
2022/10/18 06:25:52;;;;;;;10.80;5.90;;;;;;;;;;1778659;78;20985;-62
2022/10/18 06:28:18;;;;;;;11.00;6.03;;;;;;;;;;1789979;78;21557;-62
2022/10/18 06:30:44;;;;;;;12.98;6.37;;;;;;;;;;1796973;80;21085;-62
2022/10/18 06:33:11;;;;;;;13.13;7.42;;;;;;;;;;1795912;78;21032;-63
2022/10/18 06:35:37;;;;;;;13.18;6.90;;;;;;;;;;1800288;78;21037;-62
2022/10/18 06:38:03;;;;;;;12.45;6.75;;;;;;;;;;1783255;80;21494;-62
2022/10/18 06:40:36;;;;;;;13.00;6.62;;;;;;;;;;1801765;78;20981;-63
2022/10/18 06:42:59;;;;;;;15.00;6.80;;;;;;;;;;1785938;79;20974;-62
2022/10/18 06:45:25;;;;;;;17.55;7.03;;;;;;;;;;1752620;82;21071;-63
2022/10/18 06:47:52;;;;;;;11.50;6.50;;;;;;;;;;1750306;80;21044;-62
2022/10/18 06:50:18;;;;;;;10.75;5.97;;;;;;;;;;1745450;82;21033;-61
2022/10/18 06:52:44;;;;;;;11.48;5.58;;;;;;;;;;1797530;78;21032;-62
2022/10/18 06:55:10;;;;;;;10.78;6.03;;;;;;;;;;1781309;78;20979;-62
2022/10/18 06:57:36;;;;;;;11.53;6.40;;;;;;;;;;1796817;80;21066;-62
2022/10/18 07:00:03;;;;;;;11.88;6.85;;;;;;;;;;1796207;78;21046;-61
2022/10/18 07:02:29;;;;;;;10.35;5.65;;;;;;;;;;1790119;78;20999;-63
2022/10/18 07:04:56;;;;;;;10.32;6.03;;;;;;;;;;1786844;80;21027;-62
2022/10/18 07:07:21;;;;;;;13.48;8.43;;;;;;;;;;1832429;77;21036;-62
2022/10/18 07:09:47;;;;;;;11.50;6.47;;;;;;;;;;1820543;79;22100;-62
2022/10/18 07:12:16;;;;;;;8.10;5.70;;;;;;;;;;1824572;76;21024;-61
2022/10/18 07:14:42;;;;;;;11.78;6.22;;;;;;;;;;1826408;77;21052;-62
2022/10/18 07:17:08;;;;;;;10.38;5.55;;;;;;;;;;1835333;77;21092;-61
2022/10/18 07:19:35;;;;;;;18.55;6.83;;;;;;;;;;1861478;76;21008;-62
2022/10/18 07:22:01;;;;;;;14.15;5.80;;;;;;;;;;1847719;75;21012;-62
2022/10/18 07:24:27;;;;;;;13.78;5.65;;;;;;;;;;1854203;77;20993;-62
2022/10/18 07:26:53;;;;;;;12.70;6.03;;;;;;;;;;1844217;76;21075;-62
2022/10/18 07:29:20;;;;;;;10.95;6.62;;;;;;;;;;1832633;77;20988;-64
2022/10/18 07:31:46;;;;;;;13.35;7.05;;;;;;;;;;1828960;77;20996;-62
2022/10/18 07:34:12;;;;;;;16.02;7.58;;;;;;;;;;1838624;75;21091;-63
2022/10/18 07:36:39;;;;;;;9.48;5.97;;;;;;;;;;1834085;76;21013;-63
2022/10/18 07:39:06;;;;;;;11.35;5.62;;;;;;;;;;1843046;75;20982;-63
2022/10/18 07:41:35;;;;;;;19.07;5.97;;;;;;;;;;1889714;76;20973;-62
2022/10/18 07:44:01;;;;;;;12.53;6.03;;;;;;;;;;1846385;75;21024;-61
2022/10/18 07:46:28;;;;;;;12.82;6.37;;;;;;;;;;1829072;75;20981;-62
2022/10/18 07:48:54;;;;;;;12.63;6.28;;;;;;;;;;1846468;77;21052;-62
2022/10/18 07:51:20;;;;;;;12.05;5.65;;;;;;;;;;1850077;75;21029;-61
2022/10/18 07:53:46;;;;;;;9.38;5.47;;;;;;;;;;1843860;77;21072;-61
2022/10/18 07:56:17;;;;;;;11.73;5.60;;;;;;;;;;1844081;77;21096;-61
2022/10/18 07:58:44;;;;;;;9.10;5.15;;;;;;;;;;1835373;77;22204;-62
2022/10/18 08:01:11;;;;;;;9.60;5.90;;;;;;;;;;1847550;77;20993;-60
2022/10/18 08:03:37;;;;;;;15.65;6.40;;;;;;;;;;1847005;75;20988;-61
2022/10/18 08:06:05;;;;;;;7.58;4.97;;;;;;;;;;1831164;77;21073;-68
2022/10/18 08:08:33;;;;;;;7.92;5.30;;;;;;;;;;1824457;77;21133;-67
2022/10/18 08:11:09;;;;;;;8.13;5.30;;;;;;;;;;1821365;77;21042;-65
2022/10/18 08:13:36;;;;;;;10.43;5.37;;;;;;;;;;1826176;77;21013;-66
2022/10/18 08:16:04;;;;;;;12.90;5.87;;;;;;;;;;1841730;77;21020;-66
2022/10/18 08:18:30;;;;;;;16.17;5.62;;;;;;;;;;1827597;77;21027;-67
2022/10/18 08:20:59;;;;;;;15.90;5.70;;;;;;;;;;1840119;75;21041;-67
2022/10/18 08:23:26;;;;;;;8.48;4.87;;;;;;;;;;1835259;76;22142;-65
2022/10/18 08:25:52;;;;;;;10.98;5.33;;;;;;;;;;1830003;77;21016;-69
2022/10/18 08:28:18;;;;;;;18.82;5.97;;;;;;;;;;1830873;77;21087;-67
2022/10/18 08:30:44;;;;;;;8.83;5.47;;;;;;;;;;1822518;77;21062;-66
2022/10/18 08:33:11;;;;;;;8.35;5.30;;;;;;;;;;1821010;77;21024;-68
2022/10/18 08:35:36;;;;;;;8.03;5.58;;;;;;;;;;1820629;77;21562;-65
2022/10/18 08:38:03;;;;;;;11.78;5.67;;;;;;;;;;1833923;77;21457;-68
2022/10/18 08:40:32;;;;;;;8.65;5.75;;;;;;;;;;1835867;77;21772;-67
2022/10/18 08:42:59;;;;;;;8.68;4.80;;;;;;;;;;1844497;77;21515;-67
2022/10/18 08:45:25;;;;;;;9.20;4.33;;;;;;;;;;1851733;77;21016;-67
2022/10/18 08:47:52;;;;;;;8.48;5.53;;;;;;;;;;1828863;77;21031;-67
2022/10/18 08:50:21;;;;;;;11.55;5.05;;;;;;;;;;1837442;76;20981;-67
2022/10/18 08:52:49;;;;;;;10.03;6.28;;;;;;;;;;1826646;77;22134;-66
2022/10/18 08:55:17;;;;;;;12.50;8.63;;;;;;;;;;1828975;77;21461;-67
2022/10/18 08:57:44;;;;;;;18.82;10.55;;;;;;;;;;1828003;77;21018;-65
2022/10/18 09:00:12;;;;;;;19.02;12.30;;;;;;;;;;1831042;77;21033;-65
2022/10/18 09:02:40;;;;;;;13.55;8.18;;;;;;;;;;1847079;76;21029;-67
2022/10/18 09:05:09;;;;;;;10.23;5.53;;;;;;;;;;1847827;77;21076;-66
2022/10/18 09:07:46;;;;;;;8.18;5.12;;;;;;;;;;1775499;78;21044;-65
2022/10/18 09:10:32;;;;;;;10.65;5.37;;;;;;;;;;1781260;80;21099;-67
2022/10/18 09:13:01;;;;;;;8.03;5.22;;;;;;;;;;1741428;81;21170;-66
2022/10/18 09:15:30;;;;;;;8.68;5.50;;;;;;;;;;1787057;78;21031;-67
2022/10/18 09:18:04;;;;;;;8.53;5.50;;;;;;;;;;1758544;80;21026;-68
2022/10/18 09:20:33;;;;;;;6.47;4.37;;;;;;;;;;1759554;80;21503;-68
2022/10/18 09:23:04;;;;;;;8.65;4.50;;;;;;;;;;1773039;78;21536;-67
2022/10/18 09:25:38;;;;;;;8.58;4.85;;;;;;;;;;1829668;78;21590;-66
2022/10/18 09:28:15;;;;;;;6.45;5.00;;;;;;;;;;1840018;77;21503;-65
2022/10/18 09:30:55;;;;;;;8.45;4.67;;;;;;;;;;1834670;77;21095;-65
2022/10/18 09:33:40;;;;;;;6.17;4.42;;;;;;;;;;1834088;77;21035;-66
2022/10/18 09:36:08;;;;;;;9.20;5.30;;;;;;;;;;1823374;77;21003;-72
2022/10/18 09:38:42;;;;;;;9.70;5.05;;;;;;;;;;1829131;77;21086;-72
2022/10/18 09:41:27;;;;;;;7.83;4.40;;;;;;;;;;1838398;77;21115;-73
2022/10/18 09:43:54;;;;;;;8.03;4.60;;;;;;;;;;1841015;77;21010;-71
2022/10/18 09:46:21;;;;;;;6.85;4.37;;;;;;;;;;1830344;77;21035;-72
2022/10/18 09:48:49;;;;;;;7.10;4.85;;;;;;;;;;1849174;77;21031;-71
2022/10/18 09:51:20;;;;;;;8.85;4.65;;;;;;;;;;1821362;77;21059;-70
2022/10/18 09:53:45;;;;;;;7.40;5.00;;;;;;;;;;1825196;77;21036;-70
2022/10/18 09:56:19;;;;;;;8.13;4.47;;;;;;;;;;1825609;78;21075;-70
2022/10/18 09:58:47;;;;;;;7.35;4.60;;;;;;;;;;1828021;78;21047;-70
2022/10/18 10:01:15;;;;;;;13.95;4.58;;;;;;;;;;1828314;77;21029;-70
2022/10/18 10:03:42;;;;;;;7.92;4.53;;;;;;;;;;1812838;77;21017;-70
2022/10/18 10:06:14;;;;;;;5.42;4.00;;;;;;;;;;1829447;78;21601;-77
2022/10/18 10:22:27;;;;;;;7.10;5.28;;;;;;;;;;1794856;79;23610;-60
2022/10/18 10:24:54;;;;;;;9.95;5.55;;;;;;;;;;1786005;80;21087;-61
2022/10/18 10:27:28;;;;;;;9.43;5.17;;;;;;;;;;1783087;80;21012;-61
2022/10/18 10:29:55;;;;;;;6.70;4.40;;;;;;;;;;1768440;80;21012;-60
2022/10/18 10:32:23;;;;;;;6.15;4.35;;;;;;;;;;1779290;80;21051;-61
2022/10/18 10:34:50;;;;;;;10.40;5.22;;;;;;;;;;1778868;78;21529;-62
2022/10/18 10:37:21;;;;;;;10.25;5.05;;;;;;;;;;1778843;78;20955;-61
2022/10/18 10:39:52;;;;;;;7.50;4.60;;;;;;;;;;1779815;79;21050;-63
2022/10/18 10:42:19;;;;;;;10.58;5.47;;;;;;;;;;1775824;78;21042;-62
2022/10/18 10:44:46;;;;;;;11.95;4.95;;;;;;;;;;1779965;78;21525;-61
2022/10/18 10:47:15;;;;;;;9.60;5.00;;;;;;;;;;1774913;78;21065;-61
2022/10/18 10:49:42;;;;;;;6.65;4.90;;;;;;;;;;1776707;79;21009;-62
2022/10/18 10:52:10;;;;;;;8.78;5.28;;;;;;;;;;1774753;78;21527;-65
2022/10/18 10:54:37;;;;;;;7.30;4.95;;;;;;;;;;1774625;79;21058;-61
2022/10/18 10:57:04;;;;;;;8.40;5.15;;;;;;;;;;1778498;79;21006;-62
2022/10/18 10:59:32;;;;;;;8.88;4.65;;;;;;;;;;1766201;80;20996;-61
2022/10/18 11:02:12;;;;;;;7.40;4.80;;;;;;;;;;1777425;80;20961;-61
2022/10/18 11:04:40;;;;;;;8.33;4.50;;;;;;;;;;1786702;80;21080;-61
2022/10/18 11:07:10;;;;;;;10.93;5.20;;;;;;;;;;1766498;80;21044;-61
2022/10/18 11:09:55;;;;;;;5.90;4.28;;;;;;;;;;1790470;80;21011;-61
2022/10/18 11:12:23;;;;;;;6.97;5.00;;;;;;;;;;1786414;80;21037;-61
2022/10/18 11:14:52;;;;;;;7.28;5.10;;;;;;;;;;1760219;80;21544;-61
2022/10/18 11:17:26;;;;;;;7.65;4.60;;;;;;;;;;1783587;80;21025;-61
2022/10/18 11:20:04;;;;;;;6.53;4.12;;;;;;;;;;1778659;80;21032;-61
2022/10/18 11:22:33;;;;;;;7.83;4.75;;;;;;;;;;1758968;80;21021;-61
2022/10/18 11:25:00;;;;;;;7.85;4.40;;;;;;;;;;1756654;80;21042;-62
2022/10/18 11:27:35;;;;;;;12.53;5.03;;;;;;;;;;1750478;81;21029;-62
2022/10/18 11:30:15;;;;;;;6.10;4.12;;;;;;;;;;1749162;81;20999;-63
2022/10/18 11:32:53;;;;;;;5.53;3.55;;;;;;;;;;1751316;81;21009;-62
2022/10/18 11:35:27;;;;;;;7.08;5.00;;;;;;;;;;1753668;80;21049;-63
2022/10/18 11:38:04;;;;;;;8.08;4.40;;;;;;;;;;1759177;81;21103;-63
2022/10/18 11:40:32;;;;;;;8.93;5.28;;;;;;;;;;1747447;81;21098;-63
2022/10/18 11:43:12;;;;;;;13.75;5.40;;;;;;;;;;1762619;80;21513;-63
2022/10/18 11:45:43;;;;;;;7.22;4.50;;;;;;;;;;1749023;81;21072;-64
2022/10/18 11:48:15;;;;;;;7.83;4.35;;;;;;;;;;1748117;81;21520;-64
2022/10/18 11:50:52;;;;;;;8.43;4.28;;;;;;;;;;1764513;81;21025;-63
2022/10/18 11:53:24;;;;;;;8.28;4.47;;;;;;;;;;1753942;80;21022;-63
2022/10/18 11:56:01;;;;;;;5.97;4.00;;;;;;;;;;1722685;82;21123;-64
2022/10/18 11:58:41;;;;;;;5.92;4.15;;;;;;;;;;1750721;80;21069;-64
2022/10/18 12:01:15;;;;;;;6.25;4.33;;;;;;;;;;1764475;80;20979;-64
2022/10/18 12:03:56;;;;;;;11.30;4.28;;;;;;;;;;1746000;82;21616;-63
2022/10/18 12:06:24;;;;;;;7.37;4.62;;;;;;;;;;1748458;80;21064;-64
2022/10/18 12:08:52;;;;;;;7.58;5.37;;;;;;;;;;1754559;80;21032;-63
2022/10/18 12:11:20;;;;;;;5.90;4.33;;;;;;;;;;1754371;80;21144;-63
2022/10/18 12:13:48;;;;;;;6.10;4.25;;;;;;;;;;1746512;81;21086;-63
2022/10/18 12:16:17;;;;;;;8.95;5.17;;;;;;;;;;1749903;81;21096;-63
2022/10/18 12:18:49;;;;;;;7.65;5.45;;;;;;;;;;1757993;80;21037;-63
2022/10/18 12:21:17;;;;;;;6.37;4.45;;;;;;;;;;1746222;80;21505;-62
2022/10/18 12:23:44;;;;;;;10.85;6.80;;;;;;;;;;1749991;80;21044;-63
2022/10/18 12:26:12;;;;;;;14.33;8.40;;;;;;;;;;1746806;80;21068;-62
2022/10/18 12:28:43;;;;;;;13.38;7.15;;;;;;;;;;1747679;80;21092;-62
2022/10/18 12:31:28;;;;;;;17.52;6.40;;;;;;;;;;1754372;80;21040;-62
2022/10/18 12:33:59;;;;;;;12.45;5.83;;;;;;;;;;1750445;80;21060;-62
2022/10/18 12:36:33;;;;;;;7.58;5.33;;;;;;;;;;1749341;80;21092;-62
2022/10/18 12:39:00;;;;;;;10.58;4.75;;;;;;;;;;1750966;80;21051;-62
2022/10/18 12:41:28;;;;;;;7.65;4.53;;;;;;;;;;1756948;80;21026;-62
2022/10/18 12:43:58;;;;;;;8.65;4.40;;;;;;;;;;1751469;80;21005;-62
2022/10/18 12:58:44;;;;;;;11.85;5.45;;;;;;;;;;1742469;80;23098;-63
2022/10/18 13:01:10;;;;;;;21.05;7.33;;;;;;;;;;1716324;83;21537;-63
2022/10/18 13:03:41;;;;;;;12.05;5.70;;;;;;;;;;1711865;82;21039;-63
2022/10/18 13:06:07;;;;;;;6.62;4.12;;;;;;;;;;1707164;83;21028;-63
2022/10/18 13:08:39;;;;;;;8.88;4.03;;;;;;;;;;1672058;85;22128;-63
2022/10/18 13:11:09;;;;;;;6.80;4.15;;;;;;;;;;1667184;84;21090;-63
2022/10/18 13:13:46;;;;;;;7.22;4.22;;;;;;;;;;1652405;86;21106;-63
2022/10/18 13:16:14;;;;;;;9.20;4.45;;;;;;;;;;1665152;84;21079;-62
2022/10/18 13:18:53;;;;;;;5.72;4.03;;;;;;;;;;1661313;86;21619;-65
2022/10/18 13:21:23;;;;;;;6.55;3.90;;;;;;;;;;1665087;85;21566;-63
2022/10/18 13:23:51;;;;;;;10.98;4.33;;;;;;;;;;1657364;86;21122;-63
2022/10/18 13:26:25;;;;;;;7.40;4.67;;;;;;;;;;1645061;86;21135;-63
2022/10/18 13:28:57;;;;;;;13.65;6.30;;;;;;;;;;1614538;87;21168;-64
2022/10/18 13:31:31;;;;;;;6.08;4.30;;;;;;;;;;1667404;84;21092;-64
2022/10/18 13:34:17;;;;;;;13.60;4.65;;;;;;;;;;1668156;84;21040;-64
2022/10/18 13:36:43;;;;;;;17.42;5.25;;;;;;;;;;1672294;84;21045;-62
2022/10/18 13:39:11;;;;;;;10.08;4.75;;;;;;;;;;1664496;85;21037;-62
2022/10/18 13:41:43;;;;;;;9.33;4.80;;;;;;;;;;1670858;84;21034;-62
2022/10/18 13:44:22;;;;;;;12.10;5.83;;;;;;;;;;1671400;85;21067;-64
2022/10/18 13:46:51;;;;;;;12.37;5.80;;;;;;;;;;1638885;86;21084;-63
2022/10/18 13:49:34;;;;;;;10.58;5.60;;;;;;;;;;1663306;86;21104;-63
2022/10/18 13:52:02;;;;;;;21.42;5.92;;;;;;;;;;1670829;84;21104;-63
2022/10/18 13:54:47;;;;;;;38.78;7.70;;;;;;;;;;1663501;85;21092;-63
2022/10/18 13:57:33;;;;;;;8.40;5.33;;;;;;;;;;1669399;84;21119;-63
2022/10/18 14:00:04;;;;;;;10.08;5.30;;;;;;;;;;1655387;86;21729;-62
2022/10/18 14:02:34;;;;;;;10.68;5.33;;;;;;;;;;1667397;84;21090;-62
2022/10/18 14:05:07;;;;;;;11.00;4.75;;;;;;;;;;1668342;84;21076;-61
2022/10/18 14:07:33;;;;;;;13.18;4.90;;;;;;;;;;1631983;86;21605;-62
2022/10/18 14:10:01;;;;;;;10.65;4.87;;;;;;;;;;1672879;84;21073;-62
2022/10/18 14:12:33;;;;;;;9.88;5.42;;;;;;;;;;1674898;84;21082;-62
2022/10/18 14:15:19;;;;;;;8.60;5.35;;;;;;;;;;1681315;84;21624;-62
2022/10/18 14:17:47;;;;;;;8.65;4.22;;;;;;;;;;1677549;84;21080;-61
2022/10/18 14:20:27;;;;;;;24.57;4.78;;;;;;;;;;1674980;84;21043;-62
2022/10/18 14:22:58;;;;;;;11.97;4.60;;;;;;;;;;1673820;84;21001;-63
2022/10/18 14:25:29;;;;;;;13.10;4.95;;;;;;;;;;1675206;84;21047;-63
2022/10/18 14:28:03;;;;;;;10.55;4.92;;;;;;;;;;1677096;84;21044;-62
2022/10/18 14:30:30;;;;;;;11.88;4.58;;;;;;;;;;1678000;84;21072;-65
2022/10/18 14:32:58;;;;;;;33.75;5.60;;;;;;;;;;1657109;84;21172;-64
2022/10/18 14:35:30;;;;;;;16.30;6.33;;;;;;;;;;1675852;84;21047;-64
2022/10/18 14:37:57;;;;;;;28.32;6.05;;;;;;;;;;1665458;84;21647;-64
2022/10/18 14:40:28;;;;;;;21.35;6.35;;;;;;;;;;1650165;85;21103;-62
2022/10/18 14:42:54;;;;;;;14.60;7.40;;;;;;;;;;1651987;85;21095;-63
2022/10/18 14:45:22;;;;;;;15.05;8.30;;;;;;;;;;1667151;84;21099;-63
2022/10/18 14:47:48;;;;;;;17.67;8.33;;;;;;;;;;1664701;84;21116;-63
2022/10/18 14:50:21;;;;;;;15.83;7.50;;;;;;;;;;1647155;85;21013;-63
2022/10/18 14:52:47;;;;;;;23.12;6.70;;;;;;;;;;1667153;84;21040;-63
2022/10/18 14:55:21;;;;;;;38.70;8.73;;;;;;;;;;1668838;84;21228;-64
2022/10/18 14:57:47;;;;;;;46.23;12.10;;;;;;;;;;1663517;84;21076;-63
2022/10/18 15:00:15;;;;;;;14.13;6.62;;;;;;;;;;1651878;85;21044;-64
2022/10/18 15:02:41;;;;;;;19.92;6.72;;;;;;;;;;1641030;85;21032;-63
2022/10/18 15:05:19;;;;;;;13.48;6.90;;;;;;;;;;1671596;84;21035;-65
2022/10/18 15:07:46;;;;;;;19.95;8.25;;;;;;;;;;1673442;84;21166;-63
2022/10/18 15:10:15;;;;;;;15.48;8.00;;;;;;;;;;1634222;86;21102;-62
2022/10/18 15:12:43;;;;;;;10.90;6.55;;;;;;;;;;1668403;84;21619;-63
2022/10/18 15:15:11;;;;;;;15.93;7.35;;;;;;;;;;1669412;84;21172;-62
2022/10/18 15:17:37;;;;;;;44.73;10.45;;;;;;;;;;1676178;84;21518;-63